Latest Weather Observations for Badgerys Creek

IDN60901

Issued at 3:51 pm EDT Saturday 21 October 2017 (issued every 10 minutes, with the page automatically refreshed every 10 minutes)

About weather observations | Map of Sydney area stations | Latest observations for Sydney area | Other Formats
Station Details ID: 067108 Name: BADGERYS CREEK AWS Lat: -33.90 Lon: 150.73 Height: 81.2 m
Data from the previous 72 hours. | See also: Recent months at Badgerys Creek
Date/Time
EDT
Temp
°C
App
Temp
°C
Dew
Point
°C
Rel
Hum
%
Delta-T
°C
Wind Press
QNH
hPa
Press
MSL
hPa
Rain since
9am
mm
Dir  Spd
km/h
Gust
km/h
Spd
kts
Gust
kts
21/03:30pm 19.1 17.7 7.2 46 6.0 SE 4 7 2 4 1018.6 1018.4 0.0
21/03:00pm 18.6 16.2 6.8 46 5.9 ESE 9 15 5 8 1019.0 1018.8 0.0
21/02:30pm 18.6 16.7 7.4 48 5.7 SE 7 17 4 9 1019.5 1019.3 0.0
21/02:00pm 18.4 16.1 7.5 49 5.5 ESE 9 17 5 9 1019.8 1019.6 0.0
21/01:30pm 18.1 15.8 7.5 50 5.4 SSE 9 17 5 9 1020.2 1020.0 0.0
21/01:00pm 18.5 17.2 7.6 49 5.5 SE 4 9 2 5 1020.4 1020.2 0.0
21/12:30pm 17.6 15.2 6.8 49 5.4 S 9 15 5 8 1020.8 1020.6 0.0
21/12:00pm 17.4 14.4 6.0 47 5.6 SSE 11 19 6 10 1021.3 1021.1 0.0
21/11:30am 17.2 14.5 7.5 53 4.9 S 11 19 6 10 1021.8 1021.6 0.0
21/11:00am 16.4 13.9 6.5 52 4.8 SSW 9 20 5 11 1022.1 1021.9 0.0
21/10:30am 17.2 14.7 8.1 55 4.6 S 11 24 6 13 1022.5 1022.3 0.0
21/10:00am 15.7 11.8 7.0 56 4.3 SSW 17 30 9 16 1022.6 1022.4 0.0
21/09:30am 15.8 12.8 7.6 58 4.1 S 13 20 7 11 1022.6 1022.4 0.0
21/09:00am 14.9 11.0 7.0 59 3.9 SSW 17 26 9 14 1022.8 1022.6 18.4
21/08:30am 14.2 10.3 7.0 62 3.5 SW 17 24 9 13 1022.9 1022.7 18.4
21/08:00am 13.4 9.8 6.7 64 3.2 SW 15 20 8 11 1022.9 1022.7 18.4
21/07:30am 11.8 8.9 6.7 71 2.4 SW 11 15 6 8 1022.9 1022.7 18.4
21/07:00am 11.0 8.1 6.7 75 2.0 SW 11 15 6 8 1022.7 1022.5 18.4
21/06:30am 10.5 7.7 6.8 78 1.8 SW 11 13 6 7 1022.7 1022.5 18.4
21/06:00am 11.1 8.2 6.5 73 2.2 SW 11 15 6 8 1022.7 1022.5 18.4
21/05:30am 11.8 8.4 6.1 68 2.7 SSW 13 17 7 9 1022.5 1022.3 18.4
21/05:00am 12.7 9.4 6.5 66 3.0 SSW 13 20 7 11 1022.7 1022.5 18.4
21/04:30am 12.9 11.0 7.6 70 2.6 S 7 9 4 5 1022.9 1022.7 18.4
21/04:00am 13.1 10.8 7.3 68 2.8 S 9 15 5 8 1023.1 1022.9 18.4
21/03:30am 13.4 10.6 7.0 65 3.1 S 11 19 6 10 1023.3 1023.2 18.4
21/03:00am 13.5 10.0 7.3 66 3.0 S 15 24 8 13 1023.4 1023.3 18.4
21/02:30am 13.5 9.6 7.3 66 3.0 SSW 17 24 9 13 1023.5 1023.4 18.4
21/02:00am 13.8 9.9 7.3 65 3.2 S 17 26 9 14 1023.7 1023.6 18.4
21/01:30am 13.9 10.1 7.7 66 3.1 SSW 17 30 9 16 1023.9 1023.8 18.4
21/01:00am 13.8 11.4 8.6 71 2.6 SSW 11 17 6 9 1024.1 1024.0 18.4
21/12:30am 13.8 12.2 10.2 79 1.9 SW 9 15 5 8 1024.5 1024.4 18.4
21/12:00am 13.7 12.3 10.9 83 1.5 SW 9 13 5 7 1024.7 1024.6 18.4
 
Date/Time
EDT
Temp
°C
App
Temp
°C
Dew
Point
°C
Rel
Hum
%
Delta-T
°C
Wind Press
QNH
hPa
Press
MSL
hPa
Rain since
9am
mm
Dir  Spd
km/h
Gust
km/h
Spd
kts
Gust
kts
20/11:30pm 13.7 12.7 11.0 84 1.4 SW 7 11 4 6 1024.7 1024.6 18.4
20/11:00pm 13.7 12.3 11.0 84 1.4 SW 9 11 5 6 1024.6 1024.5 18.4
20/10:30pm 13.8 12.0 11.0 83 1.5 SW 11 13 6 7 1024.8 1024.7 18.4
20/10:00pm 13.9 12.5 10.9 82 1.6 SSW 9 15 5 8 1024.7 1024.6 18.4
20/09:30pm 13.8 12.7 11.8 88 1.1 SW 9 13 5 7 1024.6 1024.5 18.4
20/09:00pm 13.8 11.9 11.7 87 1.1 SW 13 17 7 9 1024.2 1024.1 18.4
20/08:30pm 13.8 12.0 12.2 90 0.9 SSW 13 17 7 9 1024.1 1024.0 18.4
20/08:00pm 13.8 13.1 13.3 97 0.3 SSW 9 13 5 7 1023.9 1023.8 18.4
20/07:30pm 13.5 13.2 13.3 99 0.1 SSW 7 11 4 6 1023.5 1023.4 18.2
20/07:00pm 13.9 13.9 13.6 98 0.2 SSW 6 9 3 5 1023.1 1022.9 17.8
20/06:30pm 14.0 13.8 13.7 98 0.2 SW 7 9 4 5 1022.8 1022.6 17.6
20/06:00pm 14.1 14.2 13.9 99 0.1 SSW 6 9 3 5 1022.5 1022.3 17.4
20/05:30pm 14.1 14.2 13.9 99 0.1 SSW 6 11 3 6 1022.3 1022.1 16.8
20/05:00pm 14.2 13.4 14.0 99 0.1 SSW 11 17 6 9 1022.1 1021.9 16.4
20/04:30pm 14.4 14.4 14.2 99 0.1 SSW 7 11 4 6 1021.8 1021.6 16.2
20/04:00pm 14.2 14.1 14.0 99 0.1 S 7 11 4 6 1021.5 1021.3 15.4
20/03:30pm 14.1 12.9 13.9 99 0.1 S 13 22 7 12 1021.6 1021.4 14.0
20/03:00pm 14.3 13.5 14.1 99 0.1 SSW 11 17 6 9 1021.7 1021.5 13.0
20/02:30pm 14.2 13.5 14.2 100 0.0 SSW 11 20 6 11 1021.7 1021.5 11.2
20/02:00pm 14.0 13.9 13.8 99 0.1 S 7 13 4 7 1021.4 1021.2 9.0
20/01:30pm 14.4 12.4 13.8 96 0.3 S 17 28 9 15 1021.2 1021.0 4.6
20/01:00pm 14.6 12.3 14.0 96 0.3 S 19 28 10 15 1021.2 1021.0 4.4
20/12:30pm 14.9 13.0 14.3 96 0.3 S 17 24 9 13 1021.0 1020.8 4.2
20/12:00pm 15.0 12.7 14.2 95 0.5 S 19 33 10 18 1021.0 1020.8 4.2
20/11:30am 15.8 15.3 15.8 100 0.0 S 13 24 7 13 1021.0 1020.8 4.0
20/11:00am 15.9 15.4 15.9 100 0.0 S 13 22 7 12 1020.9 1020.7 3.0
20/10:30am 16.6 14.5 16.1 97 0.3 SE 22 39 12 21 1020.4 1020.2 1.6
20/10:00am 19.1 21.3 19.1 100 0.0 WNW 6 7 3 4 1019.7 1019.5 1.4
20/09:30am 19.0 21.5 19.0 100 0.0 WNW 4 6 2 3 1020.0 1019.8 1.0
20/09:00am 19.0 21.5 19.0 100 0.0 WNW 4 4 2 2 1019.8 1019.6 10.4
20/08:30am 18.8 21.2 18.8 100 0.0 WNW 4 6 2 3 1019.5 1019.3 9.8
20/08:00am 18.7 21.1 18.7 100 0.0 WNW 4 6 2 3 1019.4 1019.2 8.6
20/07:30am 18.7 21.8 18.7 100 0.0 CALM 0 0 0 0 1019.2 1019.0 7.4
20/07:00am 18.4 21.4 18.4 100 0.0 CALM 0 0 0 0 1019.2 1019.0 6.4
20/06:30am 18.4 21.4 18.4 100 0.0 CALM 0 0 0 0 1018.8 1018.6 5.2
20/06:00am 18.4 21.4 18.4 100 0.0 CALM 0 0 0 0 1018.5 1018.3 4.4
20/05:30am 18.5 21.1 18.5 100 0.0 SW 2 2 1 1 1018.1 1017.9 4.0
20/05:00am 18.4 20.6 18.4 100 0.0 SW 4 4 2 2 1018.1 1017.9 3.8
20/04:30am 18.2 20.3 18.0 99 0.1 SW 4 6 2 3 1018.1 1017.9 3.4
20/04:00am 18.3 19.8 18.0 98 0.2 SW 7 11 4 6 1018.3 1018.1 2.4
20/03:30am 18.4 19.2 17.4 94 0.6 WSW 9 11 5 6 1018.1 1017.9 1.6
20/03:00am 18.4 19.8 17.9 97 0.3 WSW 7 11 4 6 1018.2 1018.0 1.4
20/02:30am 18.7 19.7 16.9 89 1.1 WSW 7 9 4 5 1018.1 1017.9 0.6
20/02:00am 18.9 19.6 16.1 84 1.7 SW 7 7 4 4 1018.1 1017.9 0.0
20/01:30am 19.9 20.4 15.1 74 2.8 WSW 6 7 3 4 1018.2 1018.0 0.0
20/01:00am 19.9 20.7 14.9 73 2.9 S 4 4 2 2 1018.0 1017.8 0.0
20/12:30am 20.2 21.8 14.8 71 3.2 CALM 0 0 0 0 1018.5 1018.3 0.0
20/12:00am 20.4 21.3 15.0 71 3.2 S 4 6 2 3 1019.0 1018.8 0.0
 
Date/Time
EDT
Temp
°C
App
Temp
°C
Dew
Point
°C
Rel
Hum
%
Delta-T
°C
Wind Press
QNH
hPa
Press
MSL
hPa
Rain since
9am
mm
Dir  Spd
km/h
Gust
km/h
Spd
kts
Gust
kts
19/11:30pm 20.7 21.0 14.6 68 3.6 S 6 7 3 4 1019.1 1018.9 0.0
19/11:00pm 20.9 21.2 14.5 67 3.7 S 6 7 3 4 1019.3 1019.1 0.0
19/10:30pm 21.1 21.2 14.5 66 3.9 SSE 7 9 4 5 1019.3 1019.1 0.0
19/10:00pm 21.2 21.5 14.4 65 4.0 SE 6 7 3 4 1019.3 1019.1 0.0
19/09:30pm 21.7 22.2 14.1 62 4.4 ESE 4 6 2 3 1019.2 1019.0 0.0
19/09:00pm 22.2 22.4 14.3 61 4.6 ESE 6 9 3 5 1019.1 1018.9 0.0
19/08:30pm 22.6 22.8 14.2 59 4.9 SE 6 7 3 4 1018.9 1018.7 0.0
19/08:00pm 23.3 23.3 14.3 57 5.3 ESE 7 9 4 5 1018.7 1018.5 0.0
19/07:30pm 24.2 24.2 14.3 54 5.9 ESE 7 11 4 6 1018.5 1018.3 0.0
19/07:00pm 25.1 24.8 14.3 51 6.4 ESE 9 13 5 7 1017.9 1017.7 0.0
19/06:30pm 26.1 24.9 13.9 47 7.2 E 13 19 7 10 1017.7 1017.5 0.0
19/06:00pm 27.0 25.1 14.1 45 7.7 E 17 24 9 13 1017.5 1017.3 0.0
19/05:30pm 28.1 26.1 14.0 42 8.5 E 17 24 9 13 1017.3 1017.2 0.0
19/05:00pm 29.5 27.4 13.7 38 9.5 E 17 24 9 13 1017.3 1017.2 0.0
19/04:30pm 30.2 28.2 13.9 37 9.8 E 17 24 9 13 1017.5 1017.3 0.0
19/04:00pm 30.6 28.7 13.0 34 10.5 E 15 26 8 14 1017.8 1017.6 0.0
19/03:30pm 30.7 29.9 13.0 33 10.6 NNE 9 17 5 9 1018.3 1018.1 0.0
19/03:00pm 29.9 28.7 12.8 35 10.1 ENE 11 19 6 10 1018.8 1018.6 0.0
19/02:30pm 30.1 29.2 13.8 37 9.8 NNE 11 17 6 9 1019.5 1019.3 0.0
19/02:00pm 28.7 27.4 13.8 40 8.9 NNE 13 22 7 12 1020.3 1020.1 0.0
19/01:30pm 28.3 27.4 13.8 41 8.7 NNE 11 20 6 11 1020.7 1020.5 0.0
19/01:00pm 27.3 26.9 14.0 44 7.9 NNE 9 19 5 10 1021.4 1021.2 0.0
19/12:30pm 26.5 25.7 13.9 45 7.5 NE 11 20 6 11 1021.9 1021.7 0.0
19/12:00pm 25.2 24.6 13.4 48 6.9 NNE 9 17 5 9 1022.5 1022.3 0.0
19/11:30am 24.8 24.3 13.7 50 6.5 NNE 9 15 5 8 1023.1 1022.9 0.0
19/11:00am 23.4 22.5 13.6 54 5.7 NNE 11 20 6 11 1023.8 1023.7 0.0
19/10:30am 22.9 21.2 13.7 56 5.4 N 15 22 8 12 1024.2 1024.1 0.0
19/10:00am 21.2 20.8 13.1 60 4.6 N 7 19 4 10 1024.7 1024.6 0.0
19/09:30am 20.4 19.8 13.6 65 3.9 N 9 17 5 9 1025.1 1025.0 0.0
19/09:00am 19.2 19.1 14.0 72 3.0 NNE 7 9 4 5 1025.3 1025.2 0.0
19/08:30am 18.0 18.2 14.1 78 2.2 NNE 6 9 3 5 1025.4 1025.3 0.0
19/08:00am 16.0 17.4 14.4 90 0.9 CALM 0 2 0 1 1025.4 1025.3 0.0
19/07:30am 14.3 15.7 14.3 100 0.0 CALM 0 0 0 0 1025.4 1025.3 0.0
19/07:00am 12.4 11.9 12.2 99 0.1 ENE 6 6 3 3 1025.2 1025.1 0.0
19/06:30am 12.5 12.8 12.3 99 0.1 ENE 2 4 1 2 1024.9 1024.8 0.0
19/06:00am 12.4 12.3 12.2 99 0.1 ENE 4 6 2 3 1024.7 1024.6 0.0
19/05:30am 12.4 12.3 12.2 99 0.1 ENE 4 4 2 2 1024.7 1024.6 0.0
19/05:00am 12.6 12.6 12.4 99 0.1 ENE 4 6 2 3 1024.6 1024.5 0.0
19/04:30am 12.6 12.2 12.4 99 0.1 ENE 6 6 3 3 1024.6 1024.5 0.0
19/04:00am 12.6 13.0 12.4 99 0.1 ENE 2 6 1 3 1024.7 1024.6 0.0
19/03:30am 13.4 14.4 13.2 99 0.1 CALM 0 0 0 0 1024.7 1024.6 0.0
19/03:00am 13.9 15.0 13.4 97 0.3 CALM 0 0 0 0 1025.0 1024.9 0.0
19/02:30am 14.4 15.6 13.9 97 0.3 CALM 0 0 0 0 1025.3 1025.2 0.0
19/02:00am 14.4 15.0 13.1 92 0.7 ENE 2 4 1 2 1025.4 1025.3 0.0
19/01:30am 15.4 15.5 13.8 90 0.9 ENE 6 7 3 4 1025.7 1025.6 0.0
19/01:00am 15.4 15.3 13.9 91 0.8 ENE 7 9 4 5 1026.0 1025.9 0.0
19/12:30am 15.7 15.5 13.7 88 1.1 NE 7 7 4 4 1026.4 1026.3 0.0
19/12:00am 16.1 16.2 13.9 87 1.2 NE 6 7 3 4 1026.5 1026.4 0.0
 
Date/Time
EDT
Temp
°C
App
Temp
°C
Dew
Point
°C
Rel
Hum
%
Delta-T
°C
Wind Press
QNH
hPa
Press
MSL
hPa
Rain since
9am
mm
Dir  Spd
km/h
Gust
km/h
Spd
kts
Gust
kts
18/11:30pm 16.6 16.9 13.3 81 1.9 NE 4 6 2 3 1026.7 1026.6 0.0
18/11:00pm 17.3 17.3 13.6 79 2.1 NE 6 9 3 5 1026.7 1026.6 0.0
18/10:30pm 17.7 17.4 13.4 76 2.4 NNE 7 9 4 5 1026.9 1026.8 0.0
18/10:00pm 19.2 18.4 14.0 72 3.0 NNE 11 15 6 8 1027.0 1026.9 0.0
18/09:30pm 19.4 19.0 14.0 71 3.1 NNE 9 13 5 7 1027.1 1027.0 0.0
18/09:00pm 19.5 19.4 13.9 70 3.2 NE 7 13 4 7 1027.1 1027.0 0.0
18/08:30pm 19.5 19.3 13.7 69 3.3 NE 7 17 4 9 1026.7 1026.6 0.0
18/08:00pm 19.9 18.6 13.6 67 3.6 NE 13 17 7 9 1026.2 1026.1 0.0
18/07:30pm 20.4 19.0 13.4 64 4.0 ENE 13 20 7 11 1025.9 1025.8 0.0
18/07:00pm 20.8 18.5 13.0 61 4.4 ENE 17 22 9 12 1025.5 1025.4 0.0
18/06:30pm 21.4 19.5 13.1 59 4.8 ENE 15 33 8 18 1025.2 1025.1 0.0
18/06:00pm 22.4 19.5 12.9 55 5.4 NE 20 30 11 16 1024.9 1024.8 0.0
18/05:30pm 22.8 19.8 12.7 53 5.8 NE 20 32 11 17 1024.8 1024.7 0.0
18/05:00pm 23.2 20.0 13.1 53 5.8 ENE 22 35 12 19 1024.5 1024.4 0.0
18/04:30pm 23.2 20.0 13.1 53 5.8 ENE 22 30 12 16 1024.5 1024.4 0.0
18/04:00pm 23.9 20.7 13.2 51 6.2 ENE 22 35 12 19 1024.4 1024.3 0.0

Latest Capital City Observations: Canberra | Sydney | Melbourne | Brisbane | Adelaide | Perth | Hobart | Darwin

Other Formats:

Comma delimited format used in spreadsheet applications
http://www.bom.gov.au/fwo/IDN60901/IDN60901.94752.axf

JavaScript Object Notation format (JSON) in row-major order
http://www.bom.gov.au/fwo/IDN60901/IDN60901.94752.json